createdAt,value
2022-11-17T00:00:38.269Z,11.10
2022-11-17T00:03:05.441Z,11.10
2022-11-17T00:05:34.644Z,11.10
2022-11-17T00:08:01.769Z,11.20
2022-11-17T00:10:28.885Z,11.10
2022-11-17T00:13:14.596Z,11.10
2022-11-17T00:15:44.452Z,11.20
2022-11-17T00:18:30.222Z,11.10
2022-11-17T00:21:15.964Z,11.10
2022-11-17T00:23:49.877Z,11.10
2022-11-17T00:26:22.370Z,11.10
2022-11-17T00:29:07.806Z,11.10
2022-11-17T00:31:53.831Z,11.10
2022-11-17T00:34:23.004Z,11.10
2022-11-17T00:36:52.509Z,11.10
2022-11-17T00:39:21.837Z,11.10
2022-11-17T00:41:48.978Z,11.10
2022-11-17T00:44:16.510Z,11.10
2022-11-17T00:46:44.497Z,11.10
2022-11-17T00:49:12.257Z,11.20
2022-11-17T00:51:39.461Z,11.10
2022-11-17T00:54:08.282Z,11.10
2022-11-17T00:56:35.495Z,11.10
2022-11-17T00:59:03.234Z,11.10
2022-11-17T01:01:30.699Z,11.10
2022-11-17T01:04:03.359Z,11.10
2022-11-17T01:06:51.009Z,11.10
2022-11-17T01:09:23.542Z,11.10
2022-11-17T01:11:52.290Z,11.10
2022-11-17T01:14:25.128Z,11.20
2022-11-17T01:16:52.990Z,11.20
2022-11-17T01:19:21.557Z,11.20
2022-11-17T01:21:49.235Z,11.20
2022-11-17T01:24:17.051Z,11.20
2022-11-17T01:26:45.383Z,11.20
2022-11-17T01:29:17.090Z,11.20
2022-11-17T01:31:49.048Z,11.20
2022-11-17T01:34:16.237Z,11.20
2022-11-17T01:37:02.996Z,11.20
2022-11-17T01:39:31.222Z,11.20
2022-11-17T01:42:02.273Z,11.20
2022-11-17T01:45:17.338Z,11.20
2022-11-17T01:47:54.545Z,11.20
2022-11-17T01:50:30.190Z,11.20
2022-11-17T01:53:01.273Z,11.30
2022-11-17T01:55:44.119Z,11.20
2022-11-17T01:58:21.104Z,11.20
2022-11-17T02:00:48.411Z,11.30
2022-11-17T02:03:15.885Z,11.30
2022-11-17T02:05:50.275Z,11.30
2022-11-17T02:08:20.733Z,11.30
2022-11-17T02:10:51.746Z,11.30
2022-11-17T02:13:21.645Z,11.30
2022-11-17T02:15:48.793Z,11.30
2022-11-17T02:18:17.453Z,11.30
2022-11-17T02:21:07.981Z,11.40
2022-11-17T02:24:06.962Z,11.40
2022-11-17T02:27:02.112Z,11.50
2022-11-17T02:29:50.218Z,11.40
2022-11-17T02:32:24.313Z,11.50
2022-11-17T02:35:13.579Z,11.50
2022-11-17T02:38:06.874Z,11.60
2022-11-17T02:40:44.606Z,11.50
2022-11-17T02:43:36.798Z,11.60
2022-11-17T02:46:19.843Z,11.60
2022-11-17T02:49:01.980Z,11.60
2022-11-17T02:51:30.901Z,11.60
2022-11-17T02:54:00.064Z,11.50
2022-11-17T02:56:27.280Z,11.60
2022-11-17T02:59:02.184Z,11.60
2022-11-17T03:01:50.547Z,11.60
2022-11-17T03:04:31.847Z,11.70
2022-11-17T03:07:22.790Z,11.60
2022-11-17T03:10:13.332Z,11.60
2022-11-17T03:12:48.115Z,11.60
2022-11-17T03:15:23.114Z,11.70
2022-11-17T03:17:56.676Z,11.70
2022-11-17T03:20:31.289Z,11.60
2022-11-17T03:23:09.676Z,11.70
2022-11-17T03:25:39.332Z,11.70
2022-11-17T03:28:11.324Z,11.70
2022-11-17T03:30:42.799Z,11.80
2022-11-17T03:33:17.750Z,11.80
2022-11-17T03:35:56.387Z,11.90
2022-11-17T03:38:26.491Z,11.90
2022-11-17T03:40:55.793Z,12.00
2022-11-17T03:43:26.227Z,11.90
2022-11-17T03:45:57.329Z,11.90
2022-11-17T03:48:35.210Z,11.90
2022-11-17T03:51:11.775Z,11.90
2022-11-17T03:53:39.134Z,12.00
2022-11-17T03:56:39.478Z,12.00
2022-11-17T03:59:22.701Z,12.10
2022-11-17T04:01:49.908Z,12.10
2022-11-17T04:04:18.775Z,12.10
2022-11-17T04:06:46.426Z,12.10
2022-11-17T04:09:13.581Z,12.10
2022-11-17T04:11:59.365Z,12.20
2022-11-17T04:14:45.319Z,12.10
2022-11-17T04:17:12.750Z,12.10
2022-11-17T04:19:39.867Z,12.20
2022-11-17T04:22:07.007Z,12.20
2022-11-17T04:24:34.167Z,12.20
2022-11-17T04:27:19.894Z,12.20
2022-11-17T04:29:47.026Z,12.20
2022-11-17T04:32:14.150Z,12.30
2022-11-17T04:34:42.516Z,12.30
2022-11-17T04:37:17.156Z,12.30
2022-11-17T04:39:45.675Z,12.30
2022-11-17T04:42:12.944Z,12.40
2022-11-17T04:44:40.218Z,12.30
2022-11-17T04:47:07.426Z,12.30
2022-11-17T04:49:34.606Z,12.30
2022-11-17T04:52:01.782Z,12.30
2022-11-17T04:54:29.074Z,12.30
2022-11-17T04:56:56.763Z,12.30
2022-11-17T04:59:23.997Z,12.30
2022-11-17T05:01:51.293Z,12.40
2022-11-17T05:04:39.179Z,12.30
2022-11-17T05:07:07.020Z,12.30
2022-11-17T05:09:34.323Z,12.20
2022-11-17T05:12:19.923Z,12.10
2022-11-17T05:14:49.057Z,12.10
2022-11-17T05:17:17.285Z,12.00
2022-11-17T05:19:46.500Z,11.90
2022-11-17T05:22:38.629Z,11.80
2022-11-17T05:25:06.679Z,11.80
2022-11-17T05:27:34.795Z,11.80
2022-11-17T05:30:03.591Z,11.70
2022-11-17T05:32:30.756Z,11.70
2022-11-17T05:34:57.925Z,11.60
2022-11-17T05:37:25.153Z,11.70
2022-11-17T05:39:52.316Z,11.70
2022-11-17T05:42:19.552Z,11.60
2022-11-17T05:44:48.416Z,11.60
2022-11-17T05:47:16.001Z,11.60
2022-11-17T05:49:43.190Z,11.70
2022-11-17T05:52:10.360Z,11.60
2022-11-17T05:54:37.500Z,11.70
2022-11-17T05:57:09.459Z,11.60
2022-11-17T05:59:45.363Z,11.70
2022-11-17T06:02:23.683Z,11.70
2022-11-17T06:04:51.782Z,11.70
2022-11-17T06:07:19.785Z,11.70
2022-11-17T06:09:48.659Z,11.80
2022-11-17T06:12:15.843Z,11.70
2022-11-17T06:14:43.072Z,11.70
2022-11-17T06:17:22.809Z,11.70
2022-11-17T06:20:01.825Z,11.70
2022-11-17T06:22:29.796Z,11.70
2022-11-17T06:24:57.684Z,11.70
2022-11-17T06:27:25.588Z,11.70
2022-11-17T06:29:53.946Z,11.70
2022-11-17T06:32:21.514Z,11.70
2022-11-17T06:34:55.222Z,11.70
2022-11-17T06:37:24.522Z,11.70
2022-11-17T06:39:51.912Z,11.80
2022-11-17T06:42:19.135Z,11.80
2022-11-17T06:44:46.309Z,11.80
2022-11-17T06:47:13.433Z,11.70
2022-11-17T06:49:40.578Z,11.70
2022-11-17T06:52:07.671Z,11.60
2022-11-17T06:54:34.855Z,11.60
2022-11-17T06:57:02.277Z,11.70
2022-11-17T06:59:29.541Z,11.70
2022-11-17T07:01:56.765Z,11.70
2022-11-17T07:04:23.952Z,11.70
2022-11-17T07:06:51.195Z,11.70
2022-11-17T07:09:18.447Z,11.70
2022-11-17T07:11:45.661Z,11.60
2022-11-17T07:14:12.869Z,11.60
2022-11-17T07:16:42.567Z,11.60
2022-11-17T07:19:10.872Z,11.60
2022-11-17T07:21:38.067Z,11.60
2022-11-17T07:24:05.486Z,11.60
2022-11-17T07:26:32.695Z,11.60
2022-11-17T07:28:59.947Z,11.60
2022-11-17T07:31:27.257Z,11.60
2022-11-17T07:33:54.697Z,11.60
2022-11-17T07:36:21.972Z,11.60
2022-11-17T07:38:49.229Z,11.60
2022-11-17T07:41:16.453Z,11.60
2022-11-17T07:43:43.642Z,11.60
2022-11-17T07:46:13.473Z,11.60
2022-11-17T07:48:42.512Z,11.50
2022-11-17T07:51:10.403Z,11.40
2022-11-17T07:53:37.615Z,11.40
2022-11-17T07:56:10.168Z,11.40
2022-11-17T07:58:38.261Z,11.40
2022-11-17T08:01:17.035Z,11.40
2022-11-17T08:03:44.526Z,11.50
2022-11-17T08:06:12.241Z,11.40
2022-11-17T08:08:39.975Z,11.30
2022-11-17T08:11:12.283Z,11.40
2022-11-17T08:13:40.667Z,11.30
2022-11-17T08:16:09.383Z,11.20
2022-11-17T08:18:37.692Z,11.20
2022-11-17T08:21:07.761Z,11.10
2022-11-17T08:23:35.252Z,11.20
2022-11-17T08:26:03.582Z,11.20
2022-11-17T08:28:30.930Z,11.20
2022-11-17T08:31:01.888Z,11.10
2022-11-17T08:33:29.071Z,11.10
2022-11-17T08:36:00.144Z,11.10
2022-11-17T08:38:29.141Z,11.10
2022-11-17T08:41:02.643Z,11.10
2022-11-17T08:43:30.064Z,11.10
2022-11-17T08:45:57.647Z,11.10
2022-11-17T08:48:25.452Z,11.10
2022-11-17T08:50:52.730Z,11.10
2022-11-17T08:53:21.797Z,11.20
2022-11-17T08:55:49.810Z,11.00
2022-11-17T08:58:17.361Z,11.00
2022-11-17T09:00:46.664Z,11.00
2022-11-17T09:03:14.344Z,11.00
2022-11-17T09:05:45.076Z,11.00
2022-11-17T09:11:09.876Z,11.10
2022-11-17T09:13:37.842Z,11.00
2022-11-17T09:16:08.472Z,11.10
2022-11-17T09:18:37.819Z,11.10
2022-11-17T09:21:09.866Z,11.10
2022-11-17T09:23:37.399Z,11.10
2022-11-17T09:26:06.971Z,11.00
2022-11-17T09:28:34.596Z,11.10
2022-11-17T09:31:08.784Z,11.10
2022-11-17T09:33:36.806Z,11.10
2022-11-17T09:36:04.571Z,11.10
2022-11-17T09:38:31.819Z,11.10
2022-11-17T09:40:59.803Z,11.10
2022-11-17T09:43:35.042Z,11.10
2022-11-17T09:46:33.559Z,11.10
2022-11-17T09:49:14.201Z,11.10
2022-11-17T09:51:44.720Z,11.00
2022-11-17T09:54:23.459Z,11.10
2022-11-17T09:56:51.612Z,11.00
2022-11-17T09:59:21.786Z,11.00
2022-11-17T10:01:48.969Z,11.10
2022-11-17T10:04:19.717Z,11.10
2022-11-17T10:06:50.288Z,11.10
2022-11-17T10:09:33.999Z,11.10
2022-11-17T10:12:30.920Z,11.10
2022-11-17T10:15:08.045Z,11.10
2022-11-17T10:17:35.321Z,11.00
2022-11-17T10:20:11.417Z,11.10
2022-11-17T10:22:38.799Z,11.00
2022-11-17T10:25:35.043Z,11.00
2022-11-17T10:28:02.615Z,11.10
2022-11-17T10:30:29.766Z,11.00
2022-11-17T10:32:59.271Z,10.90
2022-11-17T10:35:35.850Z,10.90
2022-11-17T10:38:17.316Z,11.00
2022-11-17T10:40:45.302Z,10.90
2022-11-17T10:43:12.465Z,11.00
2022-11-17T10:45:47.888Z,11.00
2022-11-17T10:48:35.702Z,11.00
2022-11-17T10:51:09.187Z,11.00
2022-11-17T10:53:45.027Z,11.10
2022-11-17T10:56:22.586Z,11.10
2022-11-17T10:58:56.164Z,11.10
2022-11-17T11:01:35.722Z,11.10
2022-11-17T11:04:04.751Z,11.00
2022-11-17T11:06:33.899Z,11.10
2022-11-17T11:09:09.594Z,11.00
2022-11-17T11:11:51.890Z,11.10
2022-11-17T11:14:30.331Z,11.00
2022-11-17T11:16:57.616Z,11.00
2022-11-17T11:19:25.359Z,10.90
2022-11-17T11:22:21.247Z,10.90
2022-11-17T11:25:17.806Z,11.00
2022-11-17T11:28:18.897Z,11.00
2022-11-17T11:31:07.753Z,11.00
2022-11-17T11:33:40.335Z,10.90
2022-11-17T11:36:19.185Z,11.00
2022-11-17T11:39:19.191Z,11.00
2022-11-17T11:42:15.237Z,11.10
2022-11-17T11:44:57.623Z,11.00
2022-11-17T11:47:31.073Z,11.10
2022-11-17T11:50:20.395Z,11.10
2022-11-17T11:52:56.471Z,11.30
2022-11-17T11:55:32.000Z,11.40
2022-11-17T11:58:21.776Z,11.30
2022-11-17T12:00:52.089Z,11.30
2022-11-17T12:03:38.188Z,11.20
2022-11-17T12:06:35.797Z,11.10
2022-11-17T12:09:32.908Z,11.10
2022-11-17T12:12:01.845Z,11.20
2022-11-17T12:14:31.871Z,11.10
2022-11-17T12:17:23.289Z,11.20
2022-11-17T12:19:54.001Z,11.10
2022-11-17T12:22:29.781Z,11.10
2022-11-17T12:25:13.458Z,11.20
2022-11-17T12:27:41.834Z,11.20
2022-11-17T12:30:31.125Z,11.10
2022-11-17T12:32:59.843Z,11.10
2022-11-17T12:35:30.027Z,11.00
2022-11-17T12:38:15.369Z,11.10
2022-11-17T12:40:47.294Z,11.10
2022-11-17T12:43:21.934Z,11.00
2022-11-17T12:45:58.311Z,11.00
2022-11-17T12:48:38.429Z,11.00
2022-11-17T12:51:24.418Z,11.00
2022-11-17T12:54:18.204Z,11.10
2022-11-17T12:56:51.892Z,11.10
2022-11-17T12:59:24.458Z,11.00
2022-11-17T13:02:13.042Z,11.00
2022-11-17T13:04:49.339Z,11.10
2022-11-17T13:07:28.454Z,11.10
2022-11-17T13:09:57.943Z,11.10
2022-11-17T13:12:30.264Z,11.10
2022-11-17T13:15:03.070Z,11.00
2022-11-17T13:17:39.850Z,11.10
2022-11-17T13:20:26.922Z,11.10
2022-11-17T13:23:21.492Z,11.10
2022-11-17T13:25:50.294Z,11.00
2022-11-17T13:28:31.953Z,10.90
2022-11-17T13:31:00.748Z,10.90
2022-11-17T13:33:28.638Z,10.90
2022-11-17T13:36:17.470Z,10.90
2022-11-17T13:38:49.610Z,10.90
2022-11-17T13:41:21.821Z,10.90
2022-11-17T13:43:51.096Z,10.90
2022-11-17T13:46:20.052Z,10.90
2022-11-17T13:48:49.263Z,10.90
2022-11-17T13:51:39.007Z,11.00
2022-11-17T13:54:12.798Z,11.00
2022-11-17T13:56:49.086Z,11.10
2022-11-17T13:59:32.892Z,11.00
2022-11-17T14:02:24.398Z,11.00
2022-11-17T14:05:09.689Z,11.00
2022-11-17T14:07:38.963Z,11.00
2022-11-17T14:10:28.193Z,11.00
2022-11-17T14:13:01.451Z,11.10
2022-11-17T14:15:31.262Z,11.10
2022-11-17T14:18:23.064Z,11.00
2022-11-17T14:21:14.828Z,11.00
2022-11-17T14:23:43.323Z,11.00
2022-11-17T14:26:20.941Z,10.90
2022-11-17T14:28:49.837Z,11.00
2022-11-17T14:31:17.905Z,11.00
2022-11-17T14:33:45.414Z,11.10
2022-11-17T14:36:16.292Z,11.10
2022-11-17T14:38:45.351Z,11.10
2022-11-17T14:41:18.160Z,11.10
2022-11-17T14:43:45.663Z,11.10
2022-11-17T14:46:19.331Z,11.00
2022-11-17T14:48:46.618Z,11.00
2022-11-17T14:51:17.614Z,11.10
2022-11-17T14:53:45.976Z,11.10
2022-11-17T14:56:16.183Z,11.10
2022-11-17T14:58:43.424Z,11.10
2022-11-17T15:01:15.683Z,11.20
2022-11-17T15:03:43.242Z,11.20
2022-11-17T15:06:15.199Z,11.30
2022-11-17T15:08:45.581Z,11.40
2022-11-17T15:11:16.071Z,11.50
2022-11-17T15:13:43.524Z,11.50
2022-11-17T15:16:11.145Z,11.60
2022-11-17T15:18:38.382Z,11.60
2022-11-17T15:21:08.133Z,11.50
2022-11-17T15:23:39.823Z,11.50
2022-11-17T15:26:10.198Z,11.60
2022-11-17T15:28:37.364Z,11.70
2022-11-17T15:31:09.974Z,11.70
2022-11-17T15:33:39.342Z,11.70
2022-11-17T15:36:08.371Z,11.80
2022-11-17T15:38:37.117Z,11.90
2022-11-17T15:41:06.636Z,11.90
2022-11-17T15:43:37.801Z,11.90
2022-11-17T15:46:16.443Z,12.00
2022-11-17T15:48:45.614Z,12.00
2022-11-17T15:51:15.110Z,12.10
2022-11-17T15:53:43.495Z,12.00
2022-11-17T15:56:13.018Z,12.10
2022-11-17T15:58:42.297Z,12.10
2022-11-17T16:01:16.274Z,12.10
2022-11-17T16:03:45.243Z,12.00
2022-11-17T16:06:12.784Z,12.10
2022-11-17T16:08:40.265Z,12.20
2022-11-17T16:11:09.327Z,12.20
2022-11-17T16:13:37.029Z,12.20
2022-11-17T16:16:05.216Z,12.10
2022-11-17T16:18:33.525Z,12.20
2022-11-17T16:21:05.457Z,12.30
2022-11-17T16:23:47.474Z,12.20
2022-11-17T16:26:16.878Z,12.20
2022-11-17T16:28:44.089Z,12.20
2022-11-17T16:31:16.998Z,12.30
2022-11-17T16:33:55.070Z,12.30
2022-11-17T16:36:24.214Z,12.30
2022-11-17T16:39:00.795Z,12.40
2022-11-17T16:41:32.109Z,12.30
2022-11-17T16:43:59.934Z,12.40
2022-11-17T16:46:30.793Z,12.40
2022-11-17T16:49:04.335Z,12.30
2022-11-17T16:51:31.793Z,12.20
2022-11-17T16:54:01.772Z,12.30
2022-11-17T16:56:29.464Z,12.30
2022-11-17T16:58:56.994Z,12.40
2022-11-17T17:01:30.405Z,12.30
2022-11-17T17:03:59.661Z,12.40
2022-11-17T17:06:27.412Z,12.40
2022-11-17T17:08:56.474Z,12.40
2022-11-17T17:11:23.880Z,12.40
2022-11-17T17:13:51.391Z,12.40
2022-11-17T17:16:19.787Z,12.30
2022-11-17T17:18:47.385Z,12.40
2022-11-17T17:21:18.238Z,12.40
2022-11-17T17:23:45.871Z,12.40
2022-11-17T17:26:18.086Z,12.40
2022-11-17T17:28:46.964Z,12.40
2022-11-17T17:31:21.053Z,12.40
2022-11-17T17:33:50.087Z,12.50
2022-11-17T17:36:22.983Z,12.40
2022-11-17T17:38:55.591Z,12.40
2022-11-17T17:41:29.175Z,12.40
2022-11-17T17:44:06.994Z,12.40
2022-11-17T17:46:37.796Z,12.30
2022-11-17T17:49:05.798Z,12.30
2022-11-17T17:51:37.457Z,10.80
2022-11-17T17:54:04.713Z,12.40
2022-11-17T17:56:34.132Z,12.40
2022-11-17T17:59:01.388Z,12.30
2022-11-17T18:01:30.981Z,12.30
2022-11-17T18:04:05.805Z,12.40
2022-11-17T18:06:38.471Z,12.30
2022-11-17T18:09:07.469Z,12.30
2022-11-17T18:11:35.646Z,12.30
2022-11-17T18:14:03.825Z,12.30
2022-11-17T18:16:33.394Z,12.20
2022-11-17T18:19:06.467Z,12.20
2022-11-17T18:21:34.246Z,12.10
2022-11-17T18:24:02.586Z,12.10
2022-11-17T18:26:35.192Z,12.10
2022-11-17T18:29:05.241Z,12.20
2022-11-17T18:31:34.295Z,12.10
2022-11-17T18:34:32.751Z,12.20
2022-11-17T18:36:59.951Z,12.10
2022-11-17T18:39:28.369Z,12.10
2022-11-17T18:41:56.124Z,12.00
2022-11-17T18:44:23.347Z,12.00
2022-11-17T18:46:50.516Z,11.90
2022-11-17T18:49:18.074Z,11.90
2022-11-17T18:51:46.115Z,12.00
2022-11-17T18:54:13.766Z,11.90
2022-11-17T18:56:41.011Z,11.90
2022-11-17T18:59:11.327Z,11.90
2022-11-17T19:01:40.452Z,11.90
2022-11-17T19:04:07.853Z,11.90
2022-11-17T19:06:35.561Z,11.90
2022-11-17T19:09:03.499Z,11.80
2022-11-17T19:11:32.820Z,11.80
2022-11-17T19:14:05.277Z,11.80
2022-11-17T19:16:33.445Z,11.70
2022-11-17T19:19:00.715Z,11.70
2022-11-17T19:21:36.267Z,11.70
2022-11-17T19:24:04.456Z,11.70
2022-11-17T19:26:33.608Z,11.70
2022-11-17T19:29:03.142Z,11.60
2022-11-17T19:31:30.851Z,11.70
2022-11-17T19:33:58.501Z,11.60
2022-11-17T19:36:29.393Z,11.60
2022-11-17T19:38:58.395Z,11.60
2022-11-17T19:41:29.886Z,11.60
2022-11-17T19:43:58.901Z,11.50
2022-11-17T19:46:27.515Z,11.50
2022-11-17T19:48:58.500Z,11.50
2022-11-17T19:51:32.792Z,11.50
2022-11-17T19:54:08.458Z,11.40
2022-11-17T19:56:36.303Z,11.40
2022-11-17T19:59:04.097Z,11.40
2022-11-17T20:01:33.050Z,11.40
2022-11-17T20:04:01.137Z,11.40
2022-11-17T20:06:31.877Z,11.50
2022-11-17T20:08:59.115Z,11.40
2022-11-17T20:11:28.471Z,11.40
2022-11-17T20:13:56.264Z,11.40
2022-11-17T20:16:26.184Z,11.40
2022-11-17T20:18:55.895Z,11.40
2022-11-17T20:21:24.478Z,11.40
2022-11-17T20:23:51.945Z,11.40
2022-11-17T20:26:25.018Z,11.30
2022-11-17T20:28:52.643Z,11.30
2022-11-17T20:31:25.622Z,11.30
2022-11-17T20:34:00.128Z,11.30
2022-11-17T20:36:29.211Z,11.30
2022-11-17T20:39:01.417Z,11.30
2022-11-17T20:41:29.541Z,11.30
2022-11-17T20:43:58.459Z,11.30
2022-11-17T20:46:26.375Z,11.30
2022-11-17T20:48:53.639Z,11.20
2022-11-17T20:51:23.357Z,11.20
2022-11-17T20:53:50.749Z,11.10
2022-11-17T20:56:18.996Z,11.20
2022-11-17T20:58:46.521Z,11.20
2022-11-17T21:01:16.529Z,11.20
2022-11-17T21:03:45.163Z,11.10
2022-11-17T21:06:15.057Z,11.10
2022-11-17T21:08:43.663Z,11.10
2022-11-17T21:11:33.440Z,11.10
2022-11-17T21:14:00.702Z,11.00
2022-11-17T21:16:28.076Z,11.10
2022-11-17T21:18:55.256Z,11.00
2022-11-17T21:21:22.478Z,11.00
2022-11-17T21:23:53.703Z,11.00
2022-11-17T21:26:21.057Z,11.00
2022-11-17T21:28:48.676Z,10.90
2022-11-17T21:31:18.310Z,10.90
2022-11-17T21:38:41.087Z,10.80
2022-11-17T21:41:11.362Z,10.50
2022-11-17T21:43:40.272Z,10.40
2022-11-17T21:46:09.704Z,10.50
2022-11-17T21:48:37.619Z,10.60
2022-11-17T21:51:06.688Z,10.60
2022-11-17T21:53:34.055Z,10.60
2022-11-17T21:56:02.452Z,10.70
2022-11-17T21:58:29.885Z,10.70
2022-11-17T22:00:57.436Z,10.70
2022-11-17T22:03:24.890Z,10.70
2022-11-17T22:05:52.308Z,10.70
2022-11-17T22:08:19.748Z,10.60
2022-11-17T22:10:46.931Z,10.60
2022-11-17T22:13:14.108Z,10.60
2022-11-17T22:15:41.264Z,10.60
2022-11-17T22:18:08.459Z,10.60
2022-11-17T22:20:36.122Z,10.60
2022-11-17T22:23:03.258Z,10.60
2022-11-17T22:25:44.633Z,10.60
2022-11-17T22:28:12.185Z,10.50
2022-11-17T22:30:39.383Z,10.50
2022-11-17T22:33:06.587Z,10.40
2022-11-17T22:35:33.783Z,10.40
2022-11-17T22:38:01.069Z,10.40
2022-11-17T22:40:28.197Z,10.40
2022-11-17T22:42:55.430Z,10.40
2022-11-17T22:45:22.622Z,10.30
2022-11-17T22:47:49.834Z,10.30
2022-11-17T22:50:17.059Z,10.30
2022-11-17T22:52:44.254Z,10.20
2022-11-17T22:55:11.451Z,10.20
2022-11-17T22:57:38.629Z,10.20
2022-11-17T23:00:06.662Z,10.20
2022-11-17T23:02:33.840Z,10.20
2022-11-17T23:05:01.025Z,10.30
2022-11-17T23:07:28.861Z,10.30
2022-11-17T23:09:56.125Z,10.20
2022-11-17T23:12:23.320Z,10.20
2022-11-17T23:14:50.513Z,10.20
2022-11-17T23:17:17.688Z,10.20
2022-11-17T23:19:44.828Z,10.20
2022-11-17T23:22:12.101Z,10.10
2022-11-17T23:24:39.252Z,10.10
2022-11-17T23:27:06.997Z,10.10
2022-11-17T23:29:36.340Z,10.10
2022-11-17T23:32:03.606Z,10.00
2022-11-17T23:34:30.801Z,10.00
2022-11-17T23:37:03.360Z,9.90
2022-11-17T23:39:30.951Z,9.90
2022-11-17T23:41:58.130Z,9.80
2022-11-17T23:44:25.322Z,9.80
2022-11-17T23:46:52.507Z,9.70
2022-11-17T23:49:19.914Z,9.80
2022-11-17T23:51:47.321Z,9.80
2022-11-17T23:54:14.837Z,9.70
2022-11-17T23:56:42.118Z,9.80
2022-11-17T23:59:09.776Z,9.80
